Wardeh — ODUS — position and weather

sailwx.info

Track history (hours):
 
Tides and Currents Weather Stations Pressure Air Temp Water Temp Dewpoint Dewpoint Depression Visibility Wind Speed Wind Dir Waves Ship Positions

Wardeh

Last reported at 2016-Apr-26 13:30 UTC. Time now 2016-May-03 08:46 UTC.
Position S 22°48' W 041°35'.

; draft 7.1 m.

Type: Cargo ship. MMSI: 450522000.

Date/timePositionNaut miles runAvg speedWind from/ knotsBaromVisibWave heightAir tempDewpointWater temp
2016-Apr-26 13:30S 22°48' W 041°35'1212.9
2016-Apr-26 12:33S 22°55' W 041°45'1312.5
2016-Apr-26 11:33S 23°03' W 041°55'1212.5
2016-Apr-26 10:33S 23°12' W 042°05'1212.5
2016-Apr-26 09:34S 23°21' W 042°15'25812.6
2016-Apr-25 13:08S 26°34' W 045°23'712.5
2016-Apr-25 12:33S 26°40' W 045°28'7612.4
2016-Apr-25 06:26S 27°37' W 046°24'1112.1
2016-Apr-25 05:33S 27°45' W 046°32'1212.3
2016-Apr-25 04:33S 27°54' W 046°41'1312.7
2016-Apr-25 03:33S 28°04' W 046°51'1312.8
2016-Apr-25 02:33S 28°13' W 047°00'1312.6
2016-Apr-25 01:33S 28°23' W 047°10'1212.4
2016-Apr-25 00:33S 28°32' W 047°19'1212.3
2016-Apr-24 23:33S 28°41' W 047°28'1312.7
2016-Apr-24 22:33S 28°51' W 047°38'1313.1
2016-Apr-24 21:33S 29°01' W 047°48'1313.1
2016-Apr-24 20:33S 29°11' W 047°58'1313.3
2016-Apr-24 19:33S 29°21' W 048°08'1313.5
2016-Apr-24 18:33S 29°31' W 048°18'8313.5
2016-Apr-24 12:23S 30°33' W 049°22'  
Track history (hours):
 
Tides and Currents Weather Stations Pressure Air Temp Water Temp Dewpoint Dewpoint Depression Visibility Wind Speed Wind Dir Waves Ship Positions

Wardeh

Last reported at 2016-Apr-26 13:30 UTC. Time now 2016-May-03 08:46 UTC.
Position S 22°48' W 041°35'.

; draft 7.1 m.

Type: Cargo ship. MMSI: 450522000.

Date/timePositionNaut miles runAvg speedWind from/ knotsBaromVisibWave heightAir tempDewpointWater temp
2016-Apr-26 13:30S 22°48' W 041°35'1212.9
2016-Apr-26 12:33S 22°55' W 041°45'1312.5
2016-Apr-26 11:33S 23°03' W 041°55'1212.5
2016-Apr-26 10:33S 23°12' W 042°05'1212.5
2016-Apr-26 09:34S 23°21' W 042°15'25812.6
2016-Apr-25 13:08S 26°34' W 045°23'712.5
2016-Apr-25 12:33S 26°40' W 045°28'7612.4
2016-Apr-25 06:26S 27°37' W 046°24'1112.1
2016-Apr-25 05:33S 27°45' W 046°32'1212.3
2016-Apr-25 04:33S 27°54' W 046°41'1312.7
2016-Apr-25 03:33S 28°04' W 046°51'1312.8
2016-Apr-25 02:33S 28°13' W 047°00'1312.6
2016-Apr-25 01:33S 28°23' W 047°10'1212.4
2016-Apr-25 00:33S 28°32' W 047°19'1212.3
2016-Apr-24 23:33S 28°41' W 047°28'1312.7
2016-Apr-24 22:33S 28°51' W 047°38'1313.1
2016-Apr-24 21:33S 29°01' W 047°48'1313.1
2016-Apr-24 20:33S 29°11' W 047°58'1313.3
2016-Apr-24 19:33S 29°21' W 048°08'1313.5
2016-Apr-24 18:33S 29°31' W 048°18'8313.5
2016-Apr-24 12:23S 30°33' W 049°22'  

Dump ship's entire track history